Time;durP1;ratioP1;P1;durP2;ratioP2;P2;SDS_P1;SDS_P2;PMS_P1;PMS_P2;Temp;Humidity;BMP_temperature;BMP_pressure;BME280_temperature;BME280_humidity;BME280_pressure;Samples;Min_cycle;Max_cycle;Signal;HPM_P1;HPM_P2
2022/09/18 00:00:16;;;;;;;13.07;2.92;;;;;;;11.35;90.95;101103.34;5095744;28;20048;-58
2022/09/18 00:02:43;;;;;;;14.63;2.67;;;;;;;11.23;91.45;101102.69;5093886;28;20050;-58
2022/09/18 00:05:10;;;;;;;13.13;2.63;;;;;;;11.30;90.94;101102.94;5094676;28;20040;-59
2022/09/18 00:07:37;;;;;;;12.80;2.78;;;;;;;11.36;91.47;101101.50;5095263;28;20067;-58
2022/09/18 00:10:04;;;;;;;11.52;2.47;;;;;;;11.42;91.03;101101.72;5094954;28;20459;-60
2022/09/18 00:12:31;;;;;;;10.93;2.42;;;;;;;11.43;90.41;101106.06;5094641;28;20397;-58
2022/09/18 00:14:57;;;;;;;13.13;2.53;;;;;;;11.53;90.10;101101.53;5094734;28;20508;-58
2022/09/18 00:17:24;;;;;;;18.70;3.38;;;;;;;11.46;89.82;101097.78;5095308;28;20447;-59
2022/09/18 00:19:51;;;;;;;10.80;2.60;;;;;;;11.38;90.47;101092.38;5093713;28;20093;-58
2022/09/18 00:22:18;;;;;;;10.00;2.50;;;;;;;11.49;89.80;101099.31;5095117;28;20064;-58
2022/09/18 00:24:45;;;;;;;12.48;2.70;;;;;;;11.44;89.83;101096.25;5095155;28;20078;-58
2022/09/18 00:27:12;;;;;;;12.43;2.63;;;;;;;11.27;90.72;101089.94;5076655;28;20044;-58
2022/09/18 00:29:39;;;;;;;13.73;2.88;;;;;;;11.36;90.47;101096.19;5095000;28;20051;-58
2022/09/18 00:32:05;;;;;;;13.10;2.55;;;;;;;11.32;90.54;101093.81;5094643;28;20044;-58
2022/09/18 00:34:32;;;;;;;16.17;2.50;;;;;;;11.36;90.21;101096.19;5094477;28;20044;-58
2022/09/18 00:36:59;;;;;;;14.98;2.65;;;;;;;11.27;90.54;101098.75;5092731;28;20075;-58
2022/09/18 00:39:25;;;;;;;10.65;2.60;;;;;;;11.24;90.78;101079.63;5094880;28;20098;-58
2022/09/18 00:41:52;;;;;;;10.48;2.38;;;;;;;11.20;91.51;101086.22;5094093;28;20036;-58
2022/09/18 00:44:41;;;;;;;12.73;2.40;;;;;;;11.28;90.91;101094.28;5093317;28;20180;-58
2022/09/18 00:50:13;;;;;;;13.40;2.45;;;;;;;11.32;91.63;101091.16;5131443;27;20645;-58
2022/09/18 00:52:53;;;;;;;18.92;2.47;;;;;;;11.22;91.28;101086.91;5111087;28;20089;-58
2022/09/18 00:55:25;;;;;;;10.77;2.95;;;;;;;11.32;91.10;101095.66;5104226;28;20131;-58
2022/09/18 00:57:55;;;;;;;13.10;2.50;;;;;;;11.34;91.42;101099.00;5090180;28;20072;-58
2022/09/18 01:00:22;;;;;;;14.88;2.50;;;;;;;11.31;91.82;101101.94;5072512;28;20051;-57
2022/09/18 01:02:49;;;;;;;13.48;2.65;;;;;;;11.36;91.50;101105.00;5090329;28;20486;-58
2022/09/18 01:05:28;;;;;;;9.88;2.50;;;;;;;11.38;91.22;101107.50;5095944;28;20031;-58
2022/09/18 01:08:20;;;;;;;19.98;2.75;;;;;;;11.35;90.82;101100.69;5110560;28;20547;-57
2022/09/18 01:11:02;;;;;;;11.18;2.13;;;;;;;11.45;90.73;101101.41;5110350;28;20532;-58
2022/09/18 01:13:42;;;;;;;9.10;2.42;;;;;;;11.41;90.86;101105.38;5110302;28;20321;-57
2022/09/18 01:16:23;;;;;;;10.25;2.58;;;;;;;11.43;91.02;101100.75;5110740;28;20040;-58
2022/09/18 01:19:01;;;;;;;8.40;2.30;;;;;;;11.42;90.78;101106.19;5110350;28;20039;-58
2022/09/18 01:21:35;;;;;;;10.27;2.13;;;;;;;11.40;90.76;101111.66;5110586;28;20488;-58
2022/09/18 01:24:28;;;;;;;11.43;2.15;;;;;;;11.51;90.01;101105.28;5110469;28;20086;-58
2022/09/18 01:27:00;;;;;;;10.93;2.20;;;;;;;11.45;90.01;101104.06;5071918;28;20052;-58
2022/09/18 01:32:42;;;;;;;13.18;2.20;;;;;;;11.35;89.72;101103.34;5089569;27;1199719;-58
2022/09/18 01:35:18;;;;;;;11.50;1.80;;;;;;;11.45;89.55;101109.41;5110863;28;20042;-58
2022/09/18 01:38:10;;;;;;;13.82;2.47;;;;;;;11.44;89.42;101109.53;5111182;28;20520;-58
2022/09/18 01:40:45;;;;;;;13.13;2.45;;;;;;;11.43;89.67;101106.06;5110728;28;20039;-57
2022/09/18 01:43:15;;;;;;;14.07;2.28;;;;;;;11.44;88.89;101112.19;5110635;28;20086;-57
2022/09/18 01:45:46;;;;;;;13.00;2.28;;;;;;;11.47;90.34;101107.41;5110555;28;20073;-57
2022/09/18 01:48:24;;;;;;;12.57;2.13;;;;;;;11.48;90.71;101108.28;5109925;28;20039;-58
2022/09/18 01:50:55;;;;;;;8.60;1.92;;;;;;;11.49;89.03;101100.13;5110711;28;20556;-58
2022/09/18 01:53:35;;;;;;;12.73;2.17;;;;;;;11.46;88.98;101091.63;5110943;28;20052;-57
2022/09/18 01:56:09;;;;;;;7.88;1.98;;;;;;;11.39;89.57;101099.38;5110853;28;20048;-57
2022/09/18 01:58:37;;;;;;;9.57;1.90;;;;;;;11.38;89.75;101094.22;5109953;28;20062;-57
2022/09/18 02:01:13;;;;;;;10.80;1.95;;;;;;;11.47;89.89;101093.31;5110837;28;20043;-57
2022/09/18 02:03:44;;;;;;;11.30;2.10;;;;;;;11.46;90.63;101102.25;5109684;28;20036;-58
2022/09/18 02:06:18;;;;;;;11.73;2.17;;;;;;;11.50;90.63;101099.16;5109336;28;20052;-58
2022/09/18 02:08:49;;;;;;;13.60;2.25;;;;;;;11.46;90.01;101097.78;5110160;28;20489;-58
2022/09/18 02:11:19;;;;;;;8.45;1.70;;;;;;;11.40;91.08;101085.09;5110627;28;20481;-58
2022/09/18 02:13:52;;;;;;;10.80;1.95;;;;;;;11.46;92.27;101081.00;5109819;28;20040;-58
2022/09/18 02:19:08;;;;;;;13.40;2.72;;;;;;;11.17;92.47;101083.84;5111180;27;20047;-58
2022/09/18 02:21:35;;;;;;;10.27;2.28;;;;;;;11.18;93.97;101075.75;5111027;28;20035;-58
2022/09/18 02:24:07;;;;;;;9.73;2.63;;;;;;;11.17;93.44;101083.84;5110610;28;20210;-58
2022/09/18 02:26:38;;;;;;;12.25;2.58;;;;;;;11.08;95.00;101082.97;5110697;28;20447;-58
2022/09/18 02:29:08;;;;;;;10.07;2.70;;;;;;;11.18;94.29;101083.72;5110815;28;20048;-58
2022/09/18 02:31:37;;;;;;;12.85;2.58;;;;;;;11.13;94.95;101084.19;5109539;28;20040;-57
2022/09/18 02:34:05;;;;;;;11.85;2.40;;;;;;;11.14;95.45;101069.06;5110595;28;20063;-58
2022/09/18 02:39:34;;;;;;;11.70;2.13;;;;;;;11.13;95.22;101076.22;5111192;27;20044;-57
2022/09/18 02:48:22;;;;;;;10.35;2.60;;;;;;;11.02;96.37;101070.25;5111268;27;20343;-57
2022/09/18 02:54:13;;;;;;;9.50;2.28;;;;;;;10.96;96.27;101055.75;5110750;27;20354;-57
2022/09/18 02:56:54;;;;;;;8.40;2.50;;;;;;;10.84;97.30;101063.13;5106378;28;20044;-57
2022/09/18 02:59:34;;;;;;;12.82;3.40;;;;;;;10.92;97.69;101065.84;5089333;28;20119;-57
2022/09/18 03:02:01;;;;;;;7.60;2.63;;;;;;;10.97;97.01;101068.06;5090786;28;20052;-57
2022/09/18 03:04:30;;;;;;;12.25;3.00;;;;;;;10.95;97.21;101054.09;5088726;28;20044;-59
2022/09/18 03:07:17;;;;;;;10.95;3.20;;;;;;;11.00;97.38;101067.75;5090004;28;20036;-58
2022/09/18 03:09:46;;;;;;;12.45;3.03;;;;;;;10.99;96.62;101066.09;5090827;28;20062;-58
2022/09/18 03:12:14;;;;;;;14.73;3.22;;;;;;;11.03;96.69;101067.47;5089835;28;20123;-58
2022/09/18 03:14:46;;;;;;;14.88;3.22;;;;;;;11.08;96.19;101059.88;5089313;28;20052;-58
2022/09/18 03:17:13;;;;;;;10.93;2.88;;;;;;;11.14;95.87;101055.78;5090228;28;20123;-58
2022/09/18 03:19:43;;;;;;;17.05;3.40;;;;;;;11.12;95.65;101061.25;5090629;28;20102;-59
2022/09/18 03:22:11;;;;;;;11.02;3.10;;;;;;;11.13;95.95;101056.78;5088772;28;20032;-58
2022/09/18 03:24:38;;;;;;;11.70;2.88;;;;;;;11.08;95.59;101051.94;5090429;28;20397;-59
2022/09/18 03:27:05;;;;;;;13.90;3.00;;;;;;;11.09;95.96;101063.38;5110022;28;20482;-58
2022/09/18 03:29:32;;;;;;;6.55;2.50;;;;;;;11.09;94.96;101066.03;5110555;28;20052;-58
2022/09/18 03:32:01;;;;;;;14.18;2.78;;;;;;;10.96;95.85;101063.72;5110477;28;20044;-58
2022/09/18 03:34:29;;;;;;;13.70;2.88;;;;;;;11.00;95.61;101064.28;5110270;28;20097;-58
2022/09/18 03:36:55;;;;;;;9.05;2.40;;;;;;;10.97;96.03;101067.22;5110254;28;20052;-58
2022/09/18 03:39:22;;;;;;;19.92;3.00;;;;;;;10.92;96.71;101068.50;5109115;28;20485;-58
2022/09/18 03:41:50;;;;;;;9.52;2.35;;;;;;;10.93;95.99;101069.31;5109041;28;20161;-58
2022/09/18 03:44:17;;;;;;;8.45;2.50;;;;;;;11.00;96.74;101061.63;5109768;28;20040;-58
2022/09/18 03:46:45;;;;;;;8.48;2.45;;;;;;;11.04;96.75;101069.16;5109918;28;20069;-58
2022/09/18 03:49:12;;;;;;;11.10;2.33;;;;;;;10.97;96.44;101065.41;5110106;28;20044;-58
2022/09/18 03:51:40;;;;;;;12.93;3.05;;;;;;;11.07;96.97;101078.63;5108276;28;20048;-58
2022/09/18 03:54:07;;;;;;;11.50;2.90;;;;;;;11.08;97.37;101075.00;5110028;28;20044;-58
2022/09/18 03:56:47;;;;;;;12.48;2.63;;;;;;;11.06;96.69;101082.25;5109951;28;20119;-58
2022/09/18 03:59:24;;;;;;;9.98;2.50;;;;;;;11.00;98.04;101072.22;5109535;28;20040;-58
2022/09/18 04:01:59;;;;;;;12.38;2.58;;;;;;;11.00;97.56;101070.41;5109802;28;20115;-58
2022/09/18 04:04:37;;;;;;;8.57;2.40;;;;;;;11.10;97.83;101068.53;5110031;27;20428;-57
2022/09/18 04:07:24;;;;;;;13.98;2.50;;;;;;;11.05;97.17;101056.69;5110931;28;20048;-57
2022/09/18 04:10:11;;;;;;;7.32;2.20;;;;;;;11.01;97.90;101069.44;5110673;28;20043;-57
2022/09/18 04:12:38;;;;;;;13.93;2.47;;;;;;;11.04;97.80;101068.28;5111056;28;20044;-58
2022/09/18 04:15:15;;;;;;;12.73;2.38;;;;;;;10.97;98.94;101078.69;5110826;28;20066;-57
2022/09/18 04:17:42;;;;;;;11.98;2.55;;;;;;;11.05;100.00;101076.09;5111110;28;20044;-57
2022/09/18 04:20:09;;;;;;;12.52;2.47;;;;;;;11.17;97.23;101079.41;5110607;28;20039;-58
2022/09/18 04:22:36;;;;;;;6.75;2.00;;;;;;;11.17;97.48;101068.78;5111019;28;20051;-57
2022/09/18 04:25:03;;;;;;;8.48;2.45;;;;;;;11.26;98.07;101075.84;5110636;28;20043;-57
2022/09/18 04:27:30;;;;;;;11.48;2.50;;;;;;;11.17;98.78;101075.88;5110408;28;20489;-57
2022/09/18 04:29:57;;;;;;;16.17;2.90;;;;;;;11.16;98.43;101082.19;5110726;28;20044;-58
2022/09/18 04:32:24;;;;;;;12.77;3.05;;;;;;;11.08;98.61;101065.19;5110752;28;20105;-58
2022/09/18 04:34:51;;;;;;;10.20;2.80;;;;;;;11.00;100.00;101065.09;5109015;28;20043;-57
2022/09/18 04:37:19;;;;;;;9.15;3.20;;;;;;;11.13;100.00;101062.94;5109463;28;20039;-57
2022/09/18 04:39:49;;;;;;;10.25;3.15;;;;;;;11.02;100.00;101065.78;5110702;28;20055;-58
2022/09/18 04:42:15;;;;;;;10.63;3.35;;;;;;;10.94;100.00;101071.84;5110055;28;20050;-57
2022/09/18 04:44:44;;;;;;;14.65;4.07;;;;;;;10.82;100.00;101058.91;5110307;28;20047;-58
2022/09/18 04:47:11;;;;;;;10.63;4.05;;;;;;;10.94;100.00;101053.25;5109242;28;20058;-58
2022/09/18 04:49:38;;;;;;;12.35;3.95;;;;;;;10.98;100.00;101063.59;5109761;28;20539;-57
2022/09/18 04:52:04;;;;;;;12.45;4.57;;;;;;;10.97;100.00;101067.22;5143473;27;20578;-58
2022/09/18 04:54:31;;;;;;;16.58;6.22;;;;;;;10.99;100.00;101063.44;5110193;28;20040;-58
2022/09/18 04:56:59;;;;;;;19.88;5.80;;;;;;;11.14;100.00;101066.41;5110481;28;20134;-58
2022/09/18 04:59:25;;;;;;;11.38;5.47;;;;;;;11.11;100.00;101059.59;5109872;28;20047;-58
2022/09/18 05:01:55;;;;;;;16.48;5.63;;;;;;;11.20;100.00;101059.66;5110066;28;20101;-58
2022/09/18 05:04:22;;;;;;;17.38;5.78;;;;;;;11.27;100.00;101058.09;5108879;28;20048;-58
2022/09/18 05:06:56;;;;;;;13.80;5.55;;;;;;;11.16;100.00;101053.00;5109601;28;20485;-58
2022/09/18 05:09:23;;;;;;;15.20;6.15;;;;;;;11.13;100.00;101059.41;5109944;28;20386;-58
2022/09/18 05:11:50;;;;;;;15.85;6.65;;;;;;;11.13;100.00;101054.97;5109553;28;20393;-58
2022/09/18 05:14:16;;;;;;;13.80;6.38;;;;;;;11.13;100.00;101051.47;5105538;28;20090;-57
2022/09/18 05:16:46;;;;;;;13.02;6.80;;;;;;;11.16;100.00;101047.69;5094766;28;20407;-57
2022/09/18 05:19:33;;;;;;;19.15;7.20;;;;;;;11.08;100.00;101051.94;5096121;28;20044;-57
2022/09/18 05:22:05;;;;;;;14.95;6.60;;;;;;;11.18;100.00;101046.53;5095146;28;20040;-57
2022/09/18 05:24:36;;;;;;;15.67;6.87;;;;;;;11.30;100.00;101055.97;5095920;28;20083;-57
2022/09/18 05:27:04;;;;;;;14.68;7.15;;;;;;;11.30;100.00;101044.50;5096110;28;20293;-58
2022/09/18 05:29:31;;;;;;;14.25;6.57;;;;;;;11.27;100.00;101056.25;5095357;28;20093;-57
2022/09/18 05:32:07;;;;;;;15.25;6.28;;;;;;;11.17;100.00;101050.19;5095766;28;20044;-58
2022/09/18 05:34:35;;;;;;;17.23;7.35;;;;;;;11.11;100.00;101048.97;5095784;28;20139;-57
2022/09/18 05:37:02;;;;;;;17.63;7.10;;;;;;;11.13;100.00;101054.13;5095974;28;20052;-57
2022/09/18 05:39:28;;;;;;;18.30;6.50;;;;;;;11.10;100.00;101060.56;5095758;28;20489;-57
2022/09/18 05:41:57;;;;;;;16.95;6.07;;;;;;;11.04;100.00;101058.53;5094764;28;20048;-57
2022/09/18 05:44:24;;;;;;;14.82;6.00;;;;;;;11.10;100.00;101059.75;5095366;28;20063;-58
2022/09/18 05:46:51;;;;;;;18.08;5.63;;;;;;;11.17;100.00;101055.50;5095508;28;20493;-58
2022/09/18 05:49:19;;;;;;;11.80;5.28;;;;;;;11.10;100.00;101063.22;5094363;28;20075;-58
2022/09/18 05:51:45;;;;;;;16.90;5.32;;;;;;;11.07;100.00;101075.97;5095390;28;20036;-58
2022/09/18 05:54:14;;;;;;;13.32;5.13;;;;;;;11.05;100.00;101070.81;5095133;28;20083;-58
2022/09/18 05:56:45;;;;;;;;;;;;;;;11.11;100.00;101064.91;5095774;28;20036;-58
2022/09/18 05:59:13;;;;;;;13.38;4.20;;;;;;;11.19;100.00;101076.56;5095099;28;20365;-59
2022/09/18 06:01:42;;;;;;;18.92;4.43;;;;;;;11.18;100.00;101072.25;5095467;28;20044;-58
2022/09/18 06:04:32;;;;;;;12.65;3.75;;;;;;;11.24;100.00;101069.84;5093844;28;20135;-58
2022/09/18 06:07:04;;;;;;;14.63;4.18;;;;;;;11.19;100.00;101072.13;5095466;28;20076;-59
2022/09/18 06:09:31;;;;;;;15.75;4.07;;;;;;;11.29;100.00;101074.69;5095125;28;20054;-58
2022/09/18 06:11:58;;;;;;;11.40;4.20;;;;;;;11.30;100.00;101079.03;5095232;28;20058;-58
2022/09/18 06:14:24;;;;;;;14.70;4.03;;;;;;;11.38;100.00;101078.28;5094781;28;20474;-58
2022/09/18 06:16:52;;;;;;;15.13;3.65;;;;;;;11.26;100.00;101069.69;5094907;28;20051;-59
2022/09/18 06:19:19;;;;;;;13.05;3.80;;;;;;;11.24;100.00;101069.84;5094579;28;20106;-59
2022/09/18 06:21:47;;;;;;;16.10;3.80;;;;;;;11.19;100.00;101074.78;5095151;28;20051;-59
2022/09/18 06:24:16;;;;;;;16.67;3.88;;;;;;;11.14;100.00;101069.06;5095002;28;20036;-59
2022/09/18 06:26:49;;;;;;;15.77;4.20;;;;;;;11.26;100.00;101061.72;5092154;28;20469;-59
2022/09/18 06:29:15;;;;;;;13.75;4.78;;;;;;;11.29;100.00;101064.06;5094396;28;20040;-58
2022/09/18 06:31:48;;;;;;;16.77;3.85;;;;;;;11.29;100.00;101067.56;5094576;28;20072;-59
2022/09/18 06:34:20;;;;;;;13.48;3.80;;;;;;;11.30;100.00;101068.41;5094943;28;20063;-59
2022/09/18 06:36:48;;;;;;;17.40;4.13;;;;;;;11.31;100.00;101065.63;5093144;28;20043;-58
2022/09/18 06:39:22;;;;;;;11.98;3.67;;;;;;;11.28;100.00;101059.78;5094618;28;20128;-59
2022/09/18 06:41:53;;;;;;;11.68;3.72;;;;;;;11.28;100.00;101067.72;5094651;28;20055;-58
2022/09/18 06:44:30;;;;;;;13.88;3.40;;;;;;;11.19;100.00;101072.13;5092605;28;20139;-58
2022/09/18 06:47:03;;;;;;;12.95;3.38;;;;;;;11.16;100.00;101067.09;5094609;28;20052;-58
2022/09/18 06:49:37;;;;;;;14.05;3.50;;;;;;;11.13;100.00;101064.72;5094601;28;20498;-58
2022/09/18 06:52:04;;;;;;;13.98;3.83;;;;;;;11.08;100.00;101072.34;5094404;28;20501;-57
2022/09/18 06:54:33;;;;;;;11.73;3.17;;;;;;;11.11;100.00;101059.59;5093903;28;20385;-58
2022/09/18 06:57:00;;;;;;;16.55;3.60;;;;;;;11.12;100.00;101061.25;5094496;28;20052;-59
2022/09/18 06:59:30;;;;;;;7.93;2.60;;;;;;;11.13;100.00;101060.28;5093735;28;20063;-59
2022/09/18 07:01:56;;;;;;;13.27;2.97;;;;;;;11.21;100.00;101061.34;5094136;28;20498;-59
2022/09/18 07:04:43;;;;;;;16.48;2.88;;;;;;;11.20;100.00;101060.50;5093091;28;20043;-58
2022/09/18 07:07:10;;;;;;;13.45;3.00;;;;;;;11.18;100.00;101054.50;5093534;28;20375;-58
2022/09/18 07:09:36;;;;;;;11.90;2.78;;;;;;;11.23;100.00;101046.94;5086090;28;20044;-59
2022/09/18 07:12:12;;;;;;;16.08;3.17;;;;;;;11.21;100.00;101048.06;5093745;28;20481;-58
2022/09/18 07:14:45;;;;;;;16.15;2.70;;;;;;;11.26;100.00;101040.47;5093036;28;20555;-59
2022/09/18 07:17:13;;;;;;;21.10;3.03;;;;;;;11.32;100.00;101059.28;5093634;28;20048;-58
2022/09/18 07:19:44;;;;;;;14.40;3.17;;;;;;;11.36;100.00;101056.34;5094260;28;20111;-58
2022/09/18 07:22:13;;;;;;;12.63;2.90;;;;;;;11.41;100.00;101054.91;5093887;28;20282;-58
2022/09/18 07:24:43;;;;;;;16.17;3.50;;;;;;;11.38;99.19;101060.50;5092697;28;20040;-60
2022/09/18 07:27:09;;;;;;;17.15;3.20;;;;;;;11.42;98.33;101045.94;5093866;28;20401;-58
2022/09/18 07:29:39;;;;;;;12.90;3.40;;;;;;;11.42;98.57;101053.91;5091720;28;20074;-58
2022/09/18 07:32:06;;;;;;;11.77;2.90;;;;;;;11.39;98.51;101054.22;5093849;28;20439;-57
2022/09/18 07:34:33;;;;;;;13.27;3.10;;;;;;;11.40;97.39;101053.22;5093504;28;20048;-58
2022/09/18 07:37:00;;;;;;;11.63;3.38;;;;;;;11.45;99.68;101048.28;5092415;28;20044;-58
2022/09/18 07:39:28;;;;;;;11.95;3.40;;;;;;;11.51;96.95;101050.34;5092960;28;20407;-58
2022/09/18 07:42:14;;;;;;;12.55;3.40;;;;;;;11.63;96.69;101048.28;5093271;28;20054;-58
2022/09/18 07:44:48;;;;;;;9.55;3.30;;;;;;;11.62;95.99;101051.09;5092969;28;20050;-58
2022/09/18 07:47:15;;;;;;;14.68;3.60;;;;;;;11.76;96.77;101039.91;5092208;28;20093;-57
2022/09/18 07:49:42;;;;;;;11.00;3.40;;;;;;;11.76;96.32;101039.91;5093743;28;20112;-58
2022/09/18 07:52:10;;;;;;;9.45;3.67;;;;;;;11.92;95.87;101044.56;5093223;28;20054;-58
2022/09/18 07:54:43;;;;;;;13.93;3.33;;;;;;;11.88;95.30;101046.66;5093222;28;20048;-58
2022/09/18 07:57:29;;;;;;;9.95;2.70;;;;;;;11.94;95.18;101049.72;5093086;28;20059;-58
2022/09/18 08:00:10;;;;;;;12.05;3.42;;;;;;;12.02;95.70;101049.75;5093349;28;20044;-58
2022/09/18 08:02:48;;;;;;;11.95;3.45;;;;;;;12.01;94.73;101045.44;5092220;28;20127;-58
2022/09/18 08:05:34;;;;;;;13.95;3.17;;;;;;;11.97;94.87;101050.25;5077892;28;20461;-58
2022/09/18 08:08:06;;;;;;;14.30;2.95;;;;;;;11.96;94.17;101045.91;5092712;28;20486;-58
2022/09/18 08:10:50;;;;;;;17.55;2.90;;;;;;;12.00;94.86;101047.25;5093288;28;20052;-58
2022/09/18 08:13:37;;;;;;;15.50;3.35;;;;;;;12.04;93.59;101055.75;5091529;28;20044;-57
2022/09/18 08:16:23;;;;;;;15.50;3.30;;;;;;;12.05;92.62;101049.47;5092889;28;20043;-58
2022/09/18 08:19:11;;;;;;;9.65;2.92;;;;;;;12.08;92.45;101057.13;5092681;28;20043;-58
2022/09/18 08:21:43;;;;;;;13.43;3.47;;;;;;;12.04;93.32;101053.09;5093269;28;20072;-58
2022/09/18 08:24:12;;;;;;;8.98;2.88;;;;;;;11.98;93.52;101053.72;5092874;28;20092;-58
2022/09/18 08:26:39;;;;;;;12.13;2.88;;;;;;;12.00;92.11;101052.56;5092457;28;20432;-58
2022/09/18 08:29:06;;;;;;;13.32;2.70;;;;;;;12.07;93.15;101061.59;5092255;28;20458;-58
2022/09/18 08:31:34;;;;;;;11.88;2.95;;;;;;;12.04;93.31;101069.91;5092756;28;20044;-58
2022/09/18 08:34:04;;;;;;;11.48;2.80;;;;;;;12.01;93.25;101077.38;5091766;28;20382;-57
2022/09/18 08:36:31;;;;;;;12.50;2.55;;;;;;;12.02;94.29;101063.88;5091521;28;20046;-58
2022/09/18 08:39:02;;;;;;;9.10;2.80;;;;;;;11.98;93.45;101065.19;5093068;28;20044;-58
2022/09/18 08:42:10;;;;;;;7.78;2.70;;;;;;;11.99;93.58;101058.03;5093167;28;20056;-60
2022/09/18 08:44:47;;;;;;;15.10;3.17;;;;;;;11.93;94.64;101050.69;5091890;28;20046;-61
2022/09/18 08:47:25;;;;;;;12.20;3.05;;;;;;;11.99;94.13;101056.25;5091444;28;20134;-61
2022/09/18 08:50:14;;;;;;;13.18;3.38;;;;;;;12.03;95.22;101075.38;5094217;28;20386;-61
2022/09/18 08:52:46;;;;;;;10.65;3.25;;;;;;;12.18;93.73;101067.66;5096752;28;20071;-61
2022/09/18 08:55:28;;;;;;;11.60;3.38;;;;;;;12.18;95.22;101060.50;5096015;28;20090;-60
2022/09/18 08:58:06;;;;;;;11.25;3.17;;;;;;;12.14;95.40;101056.50;5097193;28;20059;-61
2022/09/18 09:00:44;;;;;;;11.20;3.17;;;;;;;12.08;96.24;101043.84;5096464;28;20130;-61
2022/09/18 09:03:48;;;;;;;8.38;2.65;;;;;;;12.11;95.41;101040.84;5095280;28;20076;-60
2022/09/18 09:09:27;;;;;;;11.75;3.92;;;;;;;12.17;96.18;101045.56;5111008;27;20388;-60
2022/09/18 09:12:13;;;;;;;15.90;5.20;;;;;;;12.07;96.41;101037.66;5109316;28;20044;-61
2022/09/18 09:15:08;;;;;;;16.63;5.22;;;;;;;12.18;96.16;101047.22;5110445;28;20044;-60
2022/09/18 09:17:47;;;;;;;15.50;5.40;;;;;;;12.23;95.00;101052.06;5109295;28;20036;-60
2022/09/18 09:20:20;;;;;;;14.15;5.78;;;;;;;12.10;94.77;101047.19;5110807;28;20048;-61
2022/09/18 09:23:02;;;;;;;17.42;6.32;;;;;;;12.04;95.77;101055.75;5110844;28;20044;-61
2022/09/18 09:25:38;;;;;;;11.10;5.88;;;;;;;12.06;95.91;101044.00;5110511;28;20058;-61
2022/09/18 09:28:19;;;;;;;16.35;6.45;;;;;;;12.06;97.57;101053.78;5110201;28;20097;-61
2022/09/18 09:31:08;;;;;;;16.42;5.95;;;;;;;12.03;96.72;101049.63;5110408;28;20046;-62
2022/09/18 09:34:21;;;;;;;15.77;5.78;;;;;;;11.99;97.82;101053.59;5110173;28;20397;-62
2022/09/18 09:36:56;;;;;;;11.95;5.35;;;;;;;11.93;98.29;101048.03;5110428;28;20054;-62
2022/09/18 09:39:30;;;;;;;10.15;4.70;;;;;;;11.89;97.63;101034.19;5106636;28;20507;-50
2022/09/18 09:42:24;;;;;;;10.50;5.20;;;;;;;11.91;99.46;101042.88;5102993;28;20048;-59
2022/09/18 09:44:59;;;;;;;15.88;5.20;;;;;;;12.00;98.63;101027.81;5102689;28;20393;-59
2022/09/18 09:47:49;;;;;;;15.02;4.80;;;;;;;11.98;99.27;101040.44;5089543;28;20221;-59
2022/09/18 09:50:43;;;;;;;14.13;4.60;;;;;;;11.95;100.00;101033.63;5110027;28;20123;-59
2022/09/18 09:53:12;;;;;;;10.63;4.20;;;;;;;11.90;98.68;101035.91;5102973;28;20044;-58
2022/09/18 09:55:59;;;;;;;12.73;3.75;;;;;;;11.92;98.42;101022.47;5098138;28;20047;-57
2022/09/18 09:59:06;;;;;;;12.30;3.90;;;;;;;11.96;98.65;101014.00;5109766;28;20047;-57
2022/09/18 10:01:47;;;;;;;11.55;4.40;;;;;;;12.09;98.81;101017.06;5109750;28;20038;-57
2022/09/18 10:04:30;;;;;;;13.93;4.93;;;;;;;12.14;98.79;101016.59;5109224;28;20535;-59
2022/09/18 10:07:17;;;;;;;10.05;4.60;;;;;;;12.14;97.09;101018.44;5109684;28;20101;-57
2022/09/18 10:09:56;;;;;;;12.98;4.47;;;;;;;12.19;97.90;101014.31;5092572;28;20048;-58
2022/09/18 10:12:46;;;;;;;11.30;4.20;;;;;;;12.18;99.18;101014.47;5108772;28;20055;-60
2022/09/18 10:15:23;;;;;;;11.20;4.03;;;;;;;12.11;98.61;101016.91;5108364;28;20464;-60
2022/09/18 10:17:58;;;;;;;8.32;4.10;;;;;;;12.08;98.63;101007.44;5108377;28;20040;-59
2022/09/18 10:20:27;;;;;;;11.30;4.20;;;;;;;12.08;98.86;101003.97;5095528;28;20048;-59
2022/09/18 10:23:01;;;;;;;13.63;4.30;;;;;;;12.24;98.78;101013.81;5096215;28;20126;-59
2022/09/18 10:25:37;;;;;;;11.25;4.32;;;;;;;12.40;98.32;101005.09;5095708;28;20039;-58
2022/09/18 10:28:04;;;;;;;11.35;3.90;;;;;;;12.42;96.21;100997.78;5095818;28;20036;-59
2022/09/18 10:30:31;;;;;;;11.40;4.05;;;;;;;12.44;97.04;100999.31;5095126;28;20044;-58
2022/09/18 10:32:58;;;;;;;10.48;4.05;;;;;;;12.69;96.49;100999.38;5095792;28;20098;-59
2022/09/18 10:35:41;;;;;;;12.68;3.90;;;;;;;12.61;93.42;100997.53;5095616;28;20046;-59
2022/09/18 10:38:29;;;;;;;11.88;4.00;;;;;;;12.87;94.45;100989.44;5095844;28;20093;-59
2022/09/18 10:41:23;;;;;;;8.38;3.22;;;;;;;12.84;91.74;100989.78;5096465;28;20128;-59
2022/09/18 10:46:51;;;;;;;10.65;4.03;;;;;;;12.83;89.12;101001.44;5070305;28;20138;-58
2022/09/18 10:49:24;;;;;;;8.60;2.78;;;;;;;12.61;88.37;101002.84;5070726;28;20084;-58
2022/09/18 10:52:14;;;;;;;7.85;2.65;;;;;;;12.54;88.15;100983.22;5070479;28;20052;-58
2022/09/18 11:06:00;;;;;;;9.50;3.08;;;;;;;13.08;85.85;100977.53;5109474;27;20347;-59
2022/09/18 11:08:32;;;;;;;8.70;2.70;;;;;;;13.00;85.63;100983.66;5092486;28;20104;-58
2022/09/18 11:11:06;;;;;;;6.75;2.50;;;;;;;12.86;86.23;100986.94;5109985;28;20048;-58
2022/09/18 11:13:43;;;;;;;7.28;2.30;;;;;;;12.98;86.46;100984.81;5109844;28;20051;-59
2022/09/18 11:16:22;;;;;;;9.40;2.40;;;;;;;12.98;86.41;100979.50;5110078;28;20050;-59
2022/09/18 11:21:51;;;;;;;7.63;2.30;;;;;;;12.90;86.00;100979.47;5109877;27;20916;-59
2022/09/18 11:27:15;;;;;;;10.07;2.50;;;;;;;12.97;85.21;100973.34;5109905;27;20347;-57
2022/09/18 11:29:42;;;;;;;;;;;;;;;13.02;85.61;100968.38;5110564;28;20052;-58
2022/09/18 11:32:24;;;;;;;7.18;2.25;;;;;;;12.99;85.54;100976.69;5110167;28;19920;-58
2022/09/18 11:35:00;;;;;;;8.50;2.70;;;;;;;13.15;86.24;100980.34;5110137;28;20118;-58
2022/09/18 11:37:42;;;;;;;6.40;2.30;;;;;;;13.05;84.83;100969.84;5109062;28;20442;-57
2022/09/18 11:40:31;;;;;;;8.25;2.53;;;;;;;13.01;85.22;100976.50;5110204;28;20043;-57
2022/09/18 11:43:04;;;;;;;8.90;2.65;;;;;;;12.85;85.49;100972.81;5110063;28;20074;-57
2022/09/18 11:48:33;;;;;;;10.30;2.63;;;;;;;12.64;86.79;100980.41;5130818;27;20446;-58
2022/09/18 11:51:08;;;;;;;8.13;2.58;;;;;;;12.60;86.77;100984.38;5109919;28;20044;-57
2022/09/18 11:53:43;;;;;;;10.02;2.95;;;;;;;12.62;88.05;100977.91;5092883;28;20131;-57
2022/09/18 11:56:19;;;;;;;10.18;2.67;;;;;;;12.63;87.00;100960.94;5096939;28;20102;-58
2022/09/18 11:58:54;;;;;;;11.68;3.40;;;;;;;12.52;89.26;100963.91;5089936;28;20048;-59
2022/09/18 12:04:16;;;;;;;13.80;4.40;;;;;;;12.34;94.25;100987.13;5110072;27;20359;-58
2022/09/18 12:06:54;;;;;;;12.50;4.60;;;;;;;12.17;95.88;101005.66;5109781;28;20051;-58
2022/09/18 12:09:39;;;;;;;12.15;4.78;;;;;;;12.10;98.43;101036.53;5110615;28;20043;-59
2022/09/18 12:12:19;;;;;;;14.05;4.47;;;;;;;11.98;100.00;101029.81;5109720;28;20111;-58
2022/09/18 12:14:59;;;;;;;10.30;3.88;;;;;;;11.78;100.00;101011.34;5110263;28;20397;-58
2022/09/18 12:17:51;;;;;;;14.88;5.15;;;;;;;11.87;100.00;101005.09;5111194;28;20397;-59
2022/09/18 12:20:40;;;;;;;12.73;4.57;;;;;;;11.96;100.00;101011.34;5110386;28;20040;-58
2022/09/18 12:23:15;;;;;;;10.55;5.30;;;;;;;11.91;100.00;101010.97;5110971;28;20075;-56
2022/09/18 12:26:06;;;;;;;10.25;2.75;;;;;;;11.62;99.03;101001.44;5110581;28;20047;-59
2022/09/18 12:28:58;;;;;;;7.07;2.22;;;;;;;11.49;99.09;101022.25;5110548;28;20040;-59
2022/09/18 12:32:00;;;;;;;7.95;1.90;;;;;;;11.52;99.47;101016.66;5110612;28;20397;-59
2022/09/18 12:37:55;;;;;;;9.60;2.30;;;;;;;11.41;98.57;101007.09;5110762;27;20384;-57
2022/09/18 12:40:35;;;;;;;12.07;2.00;;;;;;;11.49;100.00;101003.66;5110858;28;20050;-58